createdAt,value
2023-03-13T00:00:00.996Z,71.4
2023-03-13T00:05:01.332Z,65.0
2023-03-13T00:10:01.001Z,61.4
2023-03-13T00:15:01.219Z,58.1
2023-03-13T00:20:01.360Z,47.6
2023-03-13T00:25:01.189Z,50.8
2023-03-13T00:30:01.324Z,47.1
2023-03-13T00:35:06.093Z,49.2
2023-03-13T00:40:01.031Z,62.0
2023-03-13T00:45:01.118Z,66.8
2023-03-13T00:50:01.038Z,73.4
2023-03-13T00:55:01.175Z,70.4
2023-03-13T01:00:01.055Z,65.7
2023-03-13T01:05:01.136Z,44.3
2023-03-13T01:10:01.036Z,54.6
2023-03-13T01:15:01.106Z,50.2
2023-03-13T01:20:01.068Z,57.5
2023-03-13T01:25:01.219Z,60.3
2023-03-13T01:30:01.034Z,73.2
2023-03-13T01:35:01.173Z,71.8
2023-03-13T01:40:01.039Z,69.9
2023-03-13T01:45:06.128Z,69.1
2023-03-13T02:00:06.785Z,56.4
2023-03-13T02:05:01.789Z,61.4
2023-03-13T02:10:02.032Z,63.5
2023-03-13T02:15:01.749Z,60.7
2023-03-13T02:20:01.618Z,56.6
2023-03-13T02:25:01.702Z,58.3
2023-03-13T02:30:01.613Z,59.6
2023-03-13T02:35:01.683Z,60.2
2023-03-13T02:40:01.626Z,64.0
2023-03-13T02:45:01.772Z,69.7
2023-03-13T02:50:01.640Z,72.2
2023-03-13T02:55:02.039Z,71.4
2023-03-13T03:00:01.896Z,70.5
2023-03-13T03:05:01.813Z,70.7
2023-03-13T03:10:01.941Z,70.2
2023-03-13T03:15:02.005Z,68.8
2023-03-13T03:20:01.589Z,68.9
2023-03-13T03:25:02.058Z,69.0
2023-03-13T03:30:01.572Z,67.1
2023-03-13T03:35:01.733Z,68.1
2023-03-13T03:40:01.533Z,62.3
2023-03-13T03:45:01.873Z,64.4
2023-03-13T03:50:01.568Z,64.8
2023-03-13T03:55:06.658Z,66.9
2023-03-13T04:00:01.561Z,67.8
2023-03-13T04:05:01.643Z,73.4
2023-03-13T04:10:01.939Z,71.5
2023-03-13T04:15:01.684Z,70.5
2023-03-13T04:20:01.586Z,69.9
2023-03-13T04:25:07.215Z,68.1
2023-03-13T04:30:06.894Z,70.1
2023-03-13T04:35:01.714Z,70.1
2023-03-13T04:40:01.912Z,67.0
2023-03-13T04:45:01.628Z,66.9
2023-03-13T04:50:01.857Z,67.5
2023-03-13T04:55:02.823Z,67.7
2023-03-13T05:05:03.055Z,73.2
2023-03-13T05:10:01.523Z,72.1
2023-03-13T05:15:01.585Z,72.6
2023-03-13T05:20:01.521Z,69.7
2023-03-13T05:25:01.619Z,69.1
2023-03-13T05:35:01.627Z,69.8
2023-03-13T05:40:01.500Z,67.6
2023-03-13T05:50:01.826Z,68.8
2023-03-13T05:55:01.618Z,68.9
2023-03-13T06:05:01.742Z,71.9
2023-03-13T06:20:01.467Z,76.5
2023-03-13T06:40:01.452Z,86.6
2023-03-13T06:50:01.537Z,74.2
2023-03-13T07:05:01.692Z,75.2
2023-03-13T07:10:01.834Z,76.1
2023-03-13T07:20:01.721Z,74.7
2023-03-13T07:40:01.439Z,72.6
2023-03-13T07:55:02.698Z,72.7
2023-03-13T08:10:01.420Z,78.9
2023-03-13T08:50:01.818Z,90.9
2023-03-13T08:55:01.896Z,91.7
2023-03-13T09:10:02.891Z,90.8
2023-03-13T09:15:02.008Z,88.7
2023-03-13T09:20:01.991Z,87.0
2023-03-13T09:35:01.866Z,80.8
2023-03-13T09:50:06.989Z,79.9
2023-03-13T09:55:02.009Z,81.5
2023-03-13T10:05:01.918Z,83.9
2023-03-13T10:10:08.488Z,86.9
2023-03-13T10:35:05.952Z,90.0
2023-03-13T10:40:01.185Z,81.5
2023-03-13T11:20:02.878Z,71.8
2023-03-13T11:40:00.998Z,60.8
2023-03-13T11:50:00.910Z,65.1
2023-03-13T11:55:01.025Z,64.1
2023-03-13T12:10:01.700Z,61.6
2023-03-13T12:20:01.366Z,66.1
2023-03-13T12:25:03.276Z,67.0
2023-03-13T12:30:01.429Z,75.7
2023-03-13T12:50:02.290Z,90.2
2023-03-13T12:55:02.496Z,84.6
2023-03-13T13:10:01.290Z,111.8
2023-03-13T13:15:01.403Z,91.5
2023-03-13T13:20:01.704Z,91.9
2023-03-13T13:40:01.948Z,129.6
2023-03-13T14:00:02.117Z,125.6
2023-03-13T14:05:01.140Z,119.6
2023-03-13T14:10:05.900Z,124.5
2023-03-13T14:30:01.586Z,90.6
2023-03-13T14:35:01.542Z,105.5
2023-03-13T14:40:01.280Z,96.9
2023-03-13T15:20:01.297Z,100.4
2023-03-13T15:25:12.108Z,80.7
2023-03-13T15:30:01.182Z,76.1
2023-03-13T15:40:06.190Z,82.7
2023-03-13T15:45:01.143Z,87.4
2023-03-13T15:50:01.079Z,104.1
2023-03-13T15:55:02.265Z,110.1
2023-03-13T16:00:01.101Z,126.6
2023-03-13T16:05:01.261Z,140.3
2023-03-13T16:10:01.576Z,149.0
2023-03-13T16:20:01.062Z,163.7
2023-03-13T16:25:01.158Z,164.8
2023-03-13T16:30:01.068Z,160.7
2023-03-13T16:40:02.099Z,155.2
2023-03-13T16:50:01.058Z,146.8
2023-03-13T16:55:01.227Z,150.6
2023-03-13T17:05:01.170Z,155.6
2023-03-13T17:10:06.188Z,161.5
2023-03-13T17:15:01.190Z,169.9
2023-03-13T17:20:01.116Z,182.2
2023-03-13T17:25:01.199Z,197.5
2023-03-13T17:30:01.392Z,203.9
2023-03-13T17:35:02.701Z,217.5
2023-03-13T17:40:01.304Z,220.9
2023-03-13T17:45:01.114Z,210.0
2023-03-13T17:50:01.331Z,194.7
2023-03-13T17:55:01.226Z,181.5
2023-03-13T18:00:01.118Z,167.6
2023-03-13T18:05:01.494Z,155.5
2023-03-13T18:10:01.079Z,153.7
2023-03-13T18:15:01.121Z,160.6
2023-03-13T18:20:01.102Z,169.7
2023-03-13T18:25:01.524Z,169.7
2023-03-13T18:30:01.435Z,175.2
2023-03-13T18:35:01.466Z,175.0
2023-03-13T18:40:01.094Z,184.1
2023-03-13T18:45:02.176Z,189.8
2023-03-13T18:50:01.113Z,195.5
2023-03-13T18:55:02.249Z,193.6
2023-03-13T19:00:01.283Z,203.3
2023-03-13T19:05:01.165Z,191.2
2023-03-13T19:10:01.474Z,181.6
2023-03-13T19:15:01.171Z,176.9
2023-03-13T19:20:01.151Z,179.1
2023-03-13T19:25:01.521Z,170.6
2023-03-13T19:30:01.452Z,175.9
2023-03-13T19:35:01.183Z,174.0
2023-03-13T19:40:01.722Z,171.9
2023-03-13T19:45:01.264Z,155.4
2023-03-13T19:50:01.392Z,142.9
2023-03-13T19:55:05.033Z,126.3
2023-03-13T20:00:01.492Z,113.8
2023-03-13T20:05:01.228Z,100.0
2023-03-13T20:10:01.128Z,94.7
2023-03-13T20:15:01.245Z,90.7
2023-03-13T20:20:01.303Z,87.1
2023-03-13T20:25:02.456Z,86.0
2023-03-13T20:30:01.205Z,91.4
2023-03-13T20:35:01.767Z,95.6
2023-03-13T20:40:02.173Z,102.8
2023-03-13T20:45:01.119Z,114.9
2023-03-13T20:50:01.140Z,125.6
2023-03-13T20:55:01.185Z,124.6
2023-03-13T21:00:01.146Z,126.6
2023-03-13T21:05:01.317Z,123.2
2023-03-13T21:10:01.130Z,118.3
2023-03-13T21:15:01.414Z,129.3
2023-03-13T21:20:01.643Z,127.2
2023-03-13T21:25:01.266Z,128.8
2023-03-13T21:30:01.260Z,128.8
2023-03-13T21:35:01.331Z,129.1
2023-03-13T21:40:01.141Z,112.3
2023-03-13T21:45:06.320Z,112.6
2023-03-13T21:50:01.083Z,113.4
2023-03-13T21:55:01.203Z,114.8
2023-03-13T22:00:01.067Z,132.0
2023-03-13T22:05:01.582Z,137.0
2023-03-13T22:10:06.110Z,140.1
2023-03-13T22:15:01.389Z,139.0
2023-03-13T22:20:06.105Z,144.2
2023-03-13T22:25:01.195Z,128.6
2023-03-13T22:30:01.067Z,130.7
2023-03-13T22:35:01.317Z,141.7
2023-03-13T22:40:01.425Z,156.0
2023-03-13T22:45:01.142Z,160.4
2023-03-13T22:50:01.074Z,173.6
2023-03-13T22:55:01.259Z,180.1
2023-03-13T23:00:01.107Z,178.2
2023-03-13T23:05:01.400Z,174.8
2023-03-13T23:10:01.102Z,170.7
2023-03-13T23:15:01.454Z,158.9
2023-03-13T23:20:01.156Z,165.1
2023-03-13T23:25:01.574Z,166.0
2023-03-13T23:30:01.099Z,166.1
2023-03-13T23:35:01.276Z,166.0
2023-03-13T23:40:01.112Z,168.5
2023-03-13T23:45:01.573Z,152.4
2023-03-13T23:50:01.071Z,143.1
2023-03-13T23:55:01.243Z,146.2
